sensor_id;sensor_type;location;lat;lon;timestamp;temperature;humidity
59007;DHT22;44792;52.760;6.726;2023-12-14T00:02:06;5.70;99.90
59007;DHT22;44792;52.760;6.726;2023-12-14T00:04:32;5.80;99.90
59007;DHT22;44792;52.760;6.726;2023-12-14T00:06:58;5.80;99.90
59007;DHT22;44792;52.760;6.726;2023-12-14T00:09:23;5.80;99.90
59007;DHT22;44792;52.760;6.726;2023-12-14T00:11:49;5.80;99.90
59007;DHT22;44792;52.760;6.726;2023-12-14T00:14:15;5.80;99.90
59007;DHT22;44792;52.760;6.726;2023-12-14T00:16:40;5.80;99.90
59007;DHT22;44792;52.760;6.726;2023-12-14T00:19:06;5.80;99.90
59007;DHT22;44792;52.760;6.726;2023-12-14T00:21:32;5.80;99.90
59007;DHT22;44792;52.760;6.726;2023-12-14T00:23:57;5.70;99.90
59007;DHT22;44792;52.760;6.726;2023-12-14T00:26:23;5.80;99.90
59007;DHT22;44792;52.760;6.726;2023-12-14T00:28:48;5.70;99.90
59007;DHT22;44792;52.760;6.726;2023-12-14T00:31:14;5.70;99.90
59007;DHT22;44792;52.760;6.726;2023-12-14T00:33:40;5.60;99.90
59007;DHT22;44792;52.760;6.726;2023-12-14T00:36:06;5.70;99.90
59007;DHT22;44792;52.760;6.726;2023-12-14T00:38:31;5.70;99.90
59007;DHT22;44792;52.760;6.726;2023-12-14T00:40:57;5.70;99.90
59007;DHT22;44792;52.760;6.726;2023-12-14T00:43:23;5.70;99.90
59007;DHT22;44792;52.760;6.726;2023-12-14T00:45:49;5.60;99.90
59007;DHT22;44792;52.760;6.726;2023-12-14T00:48:14;5.60;99.90
59007;DHT22;44792;52.760;6.726;2023-12-14T00:50:40;5.60;99.90
59007;DHT22;44792;52.760;6.726;2023-12-14T00:53:06;5.70;99.90
59007;DHT22;44792;52.760;6.726;2023-12-14T00:55:31;5.60;99.90
59007;DHT22;44792;52.760;6.726;2023-12-14T00:57:57;5.60;99.90
59007;DHT22;44792;52.760;6.726;2023-12-14T01:00:23;5.60;99.90
59007;DHT22;44792;52.760;6.726;2023-12-14T01:02:48;5.50;99.90
59007;DHT22;44792;52.760;6.726;2023-12-14T01:05:14;5.50;99.90
59007;DHT22;44792;52.760;6.726;2023-12-14T01:07:40;5.50;99.90
59007;DHT22;44792;52.760;6.726;2023-12-14T01:10:06;5.60;99.90
59007;DHT22;44792;52.760;6.726;2023-12-14T01:12:32;5.60;99.90
59007;DHT22;44792;52.760;6.726;2023-12-14T01:14:58;5.60;99.90
59007;DHT22;44792;52.760;6.726;2023-12-14T01:17:23;5.50;99.90
59007;DHT22;44792;52.760;6.726;2023-12-14T01:19:49;5.60;99.90
59007;DHT22;44792;52.760;6.726;2023-12-14T01:22:15;5.60;99.90
59007;DHT22;44792;52.760;6.726;2023-12-14T01:24:40;5.70;99.90
59007;DHT22;44792;52.760;6.726;2023-12-14T01:27:06;5.60;99.90
59007;DHT22;44792;52.760;6.726;2023-12-14T01:29:31;5.70;99.90
59007;DHT22;44792;52.760;6.726;2023-12-14T01:31:57;5.60;99.90
59007;DHT22;44792;52.760;6.726;2023-12-14T01:34:23;5.60;99.90
59007;DHT22;44792;52.760;6.726;2023-12-14T01:36:48;5.70;99.90
59007;DHT22;44792;52.760;6.726;2023-12-14T01:39:14;5.50;99.90
59007;DHT22;44792;52.760;6.726;2023-12-14T01:41:40;5.60;99.90
59007;DHT22;44792;52.760;6.726;2023-12-14T01:44:05;5.60;99.90
59007;DHT22;44792;52.760;6.726;2023-12-14T01:46:31;5.60;99.90
59007;DHT22;44792;52.760;6.726;2023-12-14T01:48:57;5.60;99.90
59007;DHT22;44792;52.760;6.726;2023-12-14T01:51:22;5.60;99.90
59007;DHT22;44792;52.760;6.726;2023-12-14T01:53:48;5.60;99.90
59007;DHT22;44792;52.760;6.726;2023-12-14T01:56:14;5.60;99.90
59007;DHT22;44792;52.760;6.726;2023-12-14T01:58:40;5.60;99.90
59007;DHT22;44792;52.760;6.726;2023-12-14T02:01:18;5.50;99.90
59007;DHT22;44792;52.760;6.726;2023-12-14T02:03:46;5.50;99.90
59007;DHT22;44792;52.760;6.726;2023-12-14T02:06:13;5.50;99.90
59007;DHT22;44792;52.760;6.726;2023-12-14T02:08:38;5.50;99.90
59007;DHT22;44792;52.760;6.726;2023-12-14T02:11:04;5.40;99.90
59007;DHT22;44792;52.760;6.726;2023-12-14T02:13:30;5.50;99.90
59007;DHT22;44792;52.760;6.726;2023-12-14T02:15:55;5.50;99.90
59007;DHT22;44792;52.760;6.726;2023-12-14T02:18:21;5.40;99.90
59007;DHT22;44792;52.760;6.726;2023-12-14T02:20:47;5.40;99.90
59007;DHT22;44792;52.760;6.726;2023-12-14T02:23:12;5.30;99.90
59007;DHT22;44792;52.760;6.726;2023-12-14T02:25:38;5.30;99.90
59007;DHT22;44792;52.760;6.726;2023-12-14T02:28:04;5.30;99.90
59007;DHT22;44792;52.760;6.726;2023-12-14T02:30:30;5.30;99.90
59007;DHT22;44792;52.760;6.726;2023-12-14T02:32:55;5.40;99.90
59007;DHT22;44792;52.760;6.726;2023-12-14T02:35:21;5.40;99.90
59007;DHT22;44792;52.760;6.726;2023-12-14T02:37:48;5.30;99.90
59007;DHT22;44792;52.760;6.726;2023-12-14T02:40:14;5.30;99.90
59007;DHT22;44792;52.760;6.726;2023-12-14T02:42:39;5.20;99.90
59007;DHT22;44792;52.760;6.726;2023-12-14T02:45:07;5.20;99.90
59007;DHT22;44792;52.760;6.726;2023-12-14T02:47:32;5.20;99.90
59007;DHT22;44792;52.760;6.726;2023-12-14T02:49:58;5.20;99.90
59007;DHT22;44792;52.760;6.726;2023-12-14T02:52:24;5.20;99.90
59007;DHT22;44792;52.760;6.726;2023-12-14T02:54:50;5.20;99.90
59007;DHT22;44792;52.760;6.726;2023-12-14T02:57:15;5.30;99.90
59007;DHT22;44792;52.760;6.726;2023-12-14T02:59:41;5.30;99.90
59007;DHT22;44792;52.760;6.726;2023-12-14T03:02:07;5.20;99.90
59007;DHT22;44792;52.760;6.726;2023-12-14T03:04:32;5.30;99.90
59007;DHT22;44792;52.760;6.726;2023-12-14T03:06:58;5.20;99.90
59007;DHT22;44792;52.760;6.726;2023-12-14T03:09:28;5.20;99.90
59007;DHT22;44792;52.760;6.726;2023-12-14T03:11:54;5.20;99.90
59007;DHT22;44792;52.760;6.726;2023-12-14T03:14:20;5.20;99.90
59007;DHT22;44792;52.760;6.726;2023-12-14T03:16:45;5.30;99.90
59007;DHT22;44792;52.760;6.726;2023-12-14T03:19:11;5.30;99.90
59007;DHT22;44792;52.760;6.726;2023-12-14T03:21:37;5.20;99.90
59007;DHT22;44792;52.760;6.726;2023-12-14T03:24:03;5.20;99.90
59007;DHT22;44792;52.760;6.726;2023-12-14T03:26:28;5.20;99.90
59007;DHT22;44792;52.760;6.726;2023-12-14T03:28:54;5.20;99.90
59007;DHT22;44792;52.760;6.726;2023-12-14T03:31:20;5.20;99.90
59007;DHT22;44792;52.760;6.726;2023-12-14T03:33:45;5.20;99.90
59007;DHT22;44792;52.760;6.726;2023-12-14T03:36:11;5.20;99.90
59007;DHT22;44792;52.760;6.726;2023-12-14T03:38:37;5.20;99.90
59007;DHT22;44792;52.760;6.726;2023-12-14T03:41:03;5.30;99.90
59007;DHT22;44792;52.760;6.726;2023-12-14T03:43:28;5.20;99.90
59007;DHT22;44792;52.760;6.726;2023-12-14T03:45:54;5.30;99.90
59007;DHT22;44792;52.760;6.726;2023-12-14T03:48:20;5.20;99.90
59007;DHT22;44792;52.760;6.726;2023-12-14T03:50:45;5.20;99.90
59007;DHT22;44792;52.760;6.726;2023-12-14T03:53:11;5.20;99.90
59007;DHT22;44792;52.760;6.726;2023-12-14T03:55:37;5.20;99.90
59007;DHT22;44792;52.760;6.726;2023-12-14T03:58:02;5.30;99.90
59007;DHT22;44792;52.760;6.726;2023-12-14T04:00:28;5.30;99.90
59007;DHT22;44792;52.760;6.726;2023-12-14T04:02:54;5.30;99.90
59007;DHT22;44792;52.760;6.726;2023-12-14T04:05:19;5.20;99.90
59007;DHT22;44792;52.760;6.726;2023-12-14T04:07:45;5.30;99.90
59007;DHT22;44792;52.760;6.726;2023-12-14T04:10:11;5.20;99.90
59007;DHT22;44792;52.760;6.726;2023-12-14T04:12:38;5.20;99.90
59007;DHT22;44792;52.760;6.726;2023-12-14T04:15:05;5.20;99.90
59007;DHT22;44792;52.760;6.726;2023-12-14T04:17:31;5.30;99.90
59007;DHT22;44792;52.760;6.726;2023-12-14T04:19:57;5.30;99.90
59007;DHT22;44792;52.760;6.726;2023-12-14T04:22:23;5.30;99.90
59007;DHT22;44792;52.760;6.726;2023-12-14T04:24:49;5.30;99.90
59007;DHT22;44792;52.760;6.726;2023-12-14T04:27:15;5.20;99.90
59007;DHT22;44792;52.760;6.726;2023-12-14T04:29:41;5.20;99.90
59007;DHT22;44792;52.760;6.726;2023-12-14T04:32:07;5.20;99.90
59007;DHT22;44792;52.760;6.726;2023-12-14T04:34:33;5.20;99.90
59007;DHT22;44792;52.760;6.726;2023-12-14T04:36:58;5.20;99.90
59007;DHT22;44792;52.760;6.726;2023-12-14T04:39:25;5.20;99.90
59007;DHT22;44792;52.760;6.726;2023-12-14T04:41:51;5.30;99.90
59007;DHT22;44792;52.760;6.726;2023-12-14T04:44:18;5.30;99.90
59007;DHT22;44792;52.760;6.726;2023-12-14T04:46:44;5.30;99.90
59007;DHT22;44792;52.760;6.726;2023-12-14T04:49:10;5.30;99.90
59007;DHT22;44792;52.760;6.726;2023-12-14T04:51:36;5.30;99.90
59007;DHT22;44792;52.760;6.726;2023-12-14T04:54:02;5.20;99.90
59007;DHT22;44792;52.760;6.726;2023-12-14T04:56:28;5.20;99.90
59007;DHT22;44792;52.760;6.726;2023-12-14T04:58:53;5.20;99.90
59007;DHT22;44792;52.760;6.726;2023-12-14T05:01:19;5.20;99.90
59007;DHT22;44792;52.760;6.726;2023-12-14T05:03:45;5.10;99.90
59007;DHT22;44792;52.760;6.726;2023-12-14T05:06:10;5.10;99.90
59007;DHT22;44792;52.760;6.726;2023-12-14T05:08:36;5.10;99.90
59007;DHT22;44792;52.760;6.726;2023-12-14T05:11:02;5.10;99.90
59007;DHT22;44792;52.760;6.726;2023-12-14T05:13:29;5.10;99.90
59007;DHT22;44792;52.760;6.726;2023-12-14T05:15:55;5.10;99.90
59007;DHT22;44792;52.760;6.726;2023-12-14T05:18:20;5.20;99.90
59007;DHT22;44792;52.760;6.726;2023-12-14T05:20:46;5.20;99.90
59007;DHT22;44792;52.760;6.726;2023-12-14T05:23:12;5.30;99.90
59007;DHT22;44792;52.760;6.726;2023-12-14T05:25:38;5.20;99.90
59007;DHT22;44792;52.760;6.726;2023-12-14T05:28:04;5.30;99.90
59007;DHT22;44792;52.760;6.726;2023-12-14T05:30:30;5.30;99.90
59007;DHT22;44792;52.760;6.726;2023-12-14T05:32:55;5.30;99.90
59007;DHT22;44792;52.760;6.726;2023-12-14T05:35:21;5.30;99.90
59007;DHT22;44792;52.760;6.726;2023-12-14T05:37:47;5.30;99.90
59007;DHT22;44792;52.760;6.726;2023-12-14T05:40:13;5.20;99.90
59007;DHT22;44792;52.760;6.726;2023-12-14T05:42:39;5.30;99.90
59007;DHT22;44792;52.760;6.726;2023-12-14T05:45:05;5.30;99.90
59007;DHT22;44792;52.760;6.726;2023-12-14T05:47:31;5.30;99.90
59007;DHT22;44792;52.760;6.726;2023-12-14T05:49:58;5.20;99.90
59007;DHT22;44792;52.760;6.726;2023-12-14T05:52:24;5.30;99.90
59007;DHT22;44792;52.760;6.726;2023-12-14T05:54:50;5.20;99.90
59007;DHT22;44792;52.760;6.726;2023-12-14T05:57:16;5.30;99.90
59007;DHT22;44792;52.760;6.726;2023-12-14T05:59:41;5.20;99.90
59007;DHT22;44792;52.760;6.726;2023-12-14T06:02:07;5.20;99.90
59007;DHT22;44792;52.760;6.726;2023-12-14T06:04:33;5.20;99.90
59007;DHT22;44792;52.760;6.726;2023-12-14T06:06:59;5.30;99.90
59007;DHT22;44792;52.760;6.726;2023-12-14T06:09:24;5.20;99.90
59007;DHT22;44792;52.760;6.726;2023-12-14T06:12:01;5.10;99.90
59007;DHT22;44792;52.760;6.726;2023-12-14T06:14:28;5.20;99.90
59007;DHT22;44792;52.760;6.726;2023-12-14T06:16:54;5.10;99.90
59007;DHT22;44792;52.760;6.726;2023-12-14T06:19:20;5.10;99.90
59007;DHT22;44792;52.760;6.726;2023-12-14T06:21:46;5.10;99.90
59007;DHT22;44792;52.760;6.726;2023-12-14T06:24:11;5.10;99.90
59007;DHT22;44792;52.760;6.726;2023-12-14T06:26:44;5.20;99.90
59007;DHT22;44792;52.760;6.726;2023-12-14T06:29:11;5.20;99.90
59007;DHT22;44792;52.760;6.726;2023-12-14T06:31:37;5.20;99.90
59007;DHT22;44792;52.760;6.726;2023-12-14T06:34:03;5.20;99.90
59007;DHT22;44792;52.760;6.726;2023-12-14T06:36:33;5.20;99.90
59007;DHT22;44792;52.760;6.726;2023-12-14T06:39:00;5.20;99.90
59007;DHT22;44792;52.760;6.726;2023-12-14T06:41:27;5.20;99.90
59007;DHT22;44792;52.760;6.726;2023-12-14T06:43:54;5.10;99.90
59007;DHT22;44792;52.760;6.726;2023-12-14T06:46:20;5.20;99.90
59007;DHT22;44792;52.760;6.726;2023-12-14T06:48:46;5.20;99.90
59007;DHT22;44792;52.760;6.726;2023-12-14T06:51:12;5.20;99.90
59007;DHT22;44792;52.760;6.726;2023-12-14T06:53:42;5.10;99.90
59007;DHT22;44792;52.760;6.726;2023-12-14T06:56:08;5.20;99.90
59007;DHT22;44792;52.760;6.726;2023-12-14T06:58:42;5.20;99.90
59007;DHT22;44792;52.760;6.726;2023-12-14T07:01:15;5.10;99.90
59007;DHT22;44792;52.760;6.726;2023-12-14T07:03:42;5.10;99.90
59007;DHT22;44792;52.760;6.726;2023-12-14T07:06:12;5.10;99.90
59007;DHT22;44792;52.760;6.726;2023-12-14T07:08:38;5.10;99.90
59007;DHT22;44792;52.760;6.726;2023-12-14T07:11:05;5.10;99.90
59007;DHT22;44792;52.760;6.726;2023-12-14T07:13:30;5.20;99.90
59007;DHT22;44792;52.760;6.726;2023-12-14T07:15:56;5.20;99.90
59007;DHT22;44792;52.760;6.726;2023-12-14T07:18:21;5.20;99.90
59007;DHT22;44792;52.760;6.726;2023-12-14T07:20:47;5.30;99.90
59007;DHT22;44792;52.760;6.726;2023-12-14T07:23:13;5.30;99.90
59007;DHT22;44792;52.760;6.726;2023-12-14T07:25:38;5.30;99.90
59007;DHT22;44792;52.760;6.726;2023-12-14T07:28:04;5.20;99.90
59007;DHT22;44792;52.760;6.726;2023-12-14T07:30:30;5.20;99.90
59007;DHT22;44792;52.760;6.726;2023-12-14T07:32:55;5.30;99.90
59007;DHT22;44792;52.760;6.726;2023-12-14T07:35:21;5.30;99.90
59007;DHT22;44792;52.760;6.726;2023-12-14T07:37:47;5.30;99.90
59007;DHT22;44792;52.760;6.726;2023-12-14T07:40:12;5.30;99.90
59007;DHT22;44792;52.760;6.726;2023-12-14T07:42:38;5.20;99.90
59007;DHT22;44792;52.760;6.726;2023-12-14T07:45:04;5.20;99.90
59007;DHT22;44792;52.760;6.726;2023-12-14T07:47:30;5.20;99.90
59007;DHT22;44792;52.760;6.726;2023-12-14T07:49:56;5.30;99.90
59007;DHT22;44792;52.760;6.726;2023-12-14T07:52:21;5.30;99.90
59007;DHT22;44792;52.760;6.726;2023-12-14T07:54:47;5.20;99.90
59007;DHT22;44792;52.760;6.726;2023-12-14T07:57:13;5.30;99.90
59007;DHT22;44792;52.760;6.726;2023-12-14T07:59:38;5.30;99.90
59007;DHT22;44792;52.760;6.726;2023-12-14T08:02:04;5.30;99.90
59007;DHT22;44792;52.760;6.726;2023-12-14T08:04:30;5.30;99.90
59007;DHT22;44792;52.760;6.726;2023-12-14T08:06:56;5.30;99.90
59007;DHT22;44792;52.760;6.726;2023-12-14T08:09:22;5.30;99.90
59007;DHT22;44792;52.760;6.726;2023-12-14T08:11:47;5.40;99.90
59007;DHT22;44792;52.760;6.726;2023-12-14T08:14:13;5.30;99.90
59007;DHT22;44792;52.760;6.726;2023-12-14T08:16:38;5.30;99.90
59007;DHT22;44792;52.760;6.726;2023-12-14T08:19:04;5.30;99.90
59007;DHT22;44792;52.760;6.726;2023-12-14T08:21:30;5.40;99.90
59007;DHT22;44792;52.760;6.726;2023-12-14T08:23:56;5.40;99.90
59007;DHT22;44792;52.760;6.726;2023-12-14T08:26:22;5.50;99.90
59007;DHT22;44792;52.760;6.726;2023-12-14T08:28:47;5.40;99.90
59007;DHT22;44792;52.760;6.726;2023-12-14T08:31:13;5.40;99.90
59007;DHT22;44792;52.760;6.726;2023-12-14T08:33:41;5.40;99.90
59007;DHT22;44792;52.760;6.726;2023-12-14T08:36:08;5.50;99.90
59007;DHT22;44792;52.760;6.726;2023-12-14T08:38:33;5.40;99.90
59007;DHT22;44792;52.760;6.726;2023-12-14T08:40:59;5.40;99.90
59007;DHT22;44792;52.760;6.726;2023-12-14T08:43:26;5.50;99.90
59007;DHT22;44792;52.760;6.726;2023-12-14T08:45:52;5.50;99.90
59007;DHT22;44792;52.760;6.726;2023-12-14T08:48:18;5.40;99.90
59007;DHT22;44792;52.760;6.726;2023-12-14T08:50:44;5.40;99.90
59007;DHT22;44792;52.760;6.726;2023-12-14T08:53:10;5.50;99.90
59007;DHT22;44792;52.760;6.726;2023-12-14T08:55:36;5.40;99.90
59007;DHT22;44792;52.760;6.726;2023-12-14T08:58:02;5.40;99.90
59007;DHT22;44792;52.760;6.726;2023-12-14T09:00:28;5.50;99.90
59007;DHT22;44792;52.760;6.726;2023-12-14T09:02:53;5.50;99.90
59007;DHT22;44792;52.760;6.726;2023-12-14T09:05:19;5.40;99.90
59007;DHT22;44792;52.760;6.726;2023-12-14T09:07:47;5.50;99.90
59007;DHT22;44792;52.760;6.726;2023-12-14T09:10:12;5.40;99.90
59007;DHT22;44792;52.760;6.726;2023-12-14T09:12:38;5.40;99.90
59007;DHT22;44792;52.760;6.726;2023-12-14T09:15:04;5.50;99.90
59007;DHT22;44792;52.760;6.726;2023-12-14T09:17:30;5.50;99.90
59007;DHT22;44792;52.760;6.726;2023-12-14T09:20:02;5.50;99.90
59007;DHT22;44792;52.760;6.726;2023-12-14T09:22:31;5.50;99.90
59007;DHT22;44792;52.760;6.726;2023-12-14T09:24:56;5.50;99.90
59007;DHT22;44792;52.760;6.726;2023-12-14T09:27:23;5.50;99.90
59007;DHT22;44792;52.760;6.726;2023-12-14T09:29:49;5.50;99.90
59007;DHT22;44792;52.760;6.726;2023-12-14T09:32:14;5.50;99.90
59007;DHT22;44792;52.760;6.726;2023-12-14T09:34:42;5.50;99.90
59007;DHT22;44792;52.760;6.726;2023-12-14T09:37:08;5.60;99.90
59007;DHT22;44792;52.760;6.726;2023-12-14T09:39:34;5.60;99.90
59007;DHT22;44792;52.760;6.726;2023-12-14T09:42:02;5.60;99.90
59007;DHT22;44792;52.760;6.726;2023-12-14T09:44:30;5.60;99.90
59007;DHT22;44792;52.760;6.726;2023-12-14T09:46:58;5.60;99.90
59007;DHT22;44792;52.760;6.726;2023-12-14T09:49:26;5.60;99.90
59007;DHT22;44792;52.760;6.726;2023-12-14T09:51:55;5.60;99.90
59007;DHT22;44792;52.760;6.726;2023-12-14T09:54:22;5.60;99.90
59007;DHT22;44792;52.760;6.726;2023-12-14T09:56:48;5.60;99.90
59007;DHT22;44792;52.760;6.726;2023-12-14T09:59:14;5.60;99.90
59007;DHT22;44792;52.760;6.726;2023-12-14T10:01:40;5.60;99.90
59007;DHT22;44792;52.760;6.726;2023-12-14T10:04:07;5.70;99.90
59007;DHT22;44792;52.760;6.726;2023-12-14T10:06:33;5.60;99.90
59007;DHT22;44792;52.760;6.726;2023-12-14T10:08:59;5.60;99.90
59007;DHT22;44792;52.760;6.726;2023-12-14T10:11:24;5.60;99.90
59007;DHT22;44792;52.760;6.726;2023-12-14T10:13:50;5.70;99.90
59007;DHT22;44792;52.760;6.726;2023-12-14T10:16:32;5.70;99.90
59007;DHT22;44792;52.760;6.726;2023-12-14T10:18:59;5.70;99.90
59007;DHT22;44792;52.760;6.726;2023-12-14T10:21:27;5.70;99.90
59007;DHT22;44792;52.760;6.726;2023-12-14T10:23:55;5.70;99.90
59007;DHT22;44792;52.760;6.726;2023-12-14T10:26:25;5.70;99.90
59007;DHT22;44792;52.760;6.726;2023-12-14T10:28:51;5.80;99.90
59007;DHT22;44792;52.760;6.726;2023-12-14T10:31:20;6.00;99.90
59007;DHT22;44792;52.760;6.726;2023-12-14T10:33:47;6.00;99.90
59007;DHT22;44792;52.760;6.726;2023-12-14T10:36:14;6.10;99.90
59007;DHT22;44792;52.760;6.726;2023-12-14T10:38:40;6.10;99.90
59007;DHT22;44792;52.760;6.726;2023-12-14T10:41:09;6.20;99.90
59007;DHT22;44792;52.760;6.726;2023-12-14T10:43:38;6.30;99.90
59007;DHT22;44792;52.760;6.726;2023-12-14T10:46:05;6.40;99.90
59007;DHT22;44792;52.760;6.726;2023-12-14T10:48:35;6.50;99.90
59007;DHT22;44792;52.760;6.726;2023-12-14T10:51:02;6.50;99.90
59007;DHT22;44792;52.760;6.726;2023-12-14T10:53:32;6.60;99.90
59007;DHT22;44792;52.760;6.726;2023-12-14T10:56:00;6.70;99.90
59007;DHT22;44792;52.760;6.726;2023-12-14T10:58:47;6.70;99.90
59007;DHT22;44792;52.760;6.726;2023-12-14T11:01:15;6.70;99.90
59007;DHT22;44792;52.760;6.726;2023-12-14T11:03:43;6.70;99.90
59007;DHT22;44792;52.760;6.726;2023-12-14T11:06:27;6.90;99.90
59007;DHT22;44792;52.760;6.726;2023-12-14T11:09:00;6.80;99.90
59007;DHT22;44792;52.760;6.726;2023-12-14T11:11:29;6.90;99.90
59007;DHT22;44792;52.760;6.726;2023-12-14T11:13:55;6.90;99.90
59007;DHT22;44792;52.760;6.726;2023-12-14T11:16:27;6.90;99.90
59007;DHT22;44792;52.760;6.726;2023-12-14T11:21:48;6.90;99.90
59007;DHT22;44792;52.760;6.726;2023-12-14T11:24:22;6.90;99.90
59007;DHT22;44792;52.760;6.726;2023-12-14T11:26:51;6.90;99.90
59007;DHT22;44792;52.760;6.726;2023-12-14T11:29:20;6.90;99.90
59007;DHT22;44792;52.760;6.726;2023-12-14T11:31:47;7.00;99.90
59007;DHT22;44792;52.760;6.726;2023-12-14T11:34:15;6.90;99.90
59007;DHT22;44792;52.760;6.726;2023-12-14T11:36:42;6.90;99.90
59007;DHT22;44792;52.760;6.726;2023-12-14T11:39:09;6.90;99.90
59007;DHT22;44792;52.760;6.726;2023-12-14T11:41:35;7.00;99.90
59007;DHT22;44792;52.760;6.726;2023-12-14T11:44:02;6.90;99.90
59007;DHT22;44792;52.760;6.726;2023-12-14T11:46:29;7.00;99.90
59007;DHT22;44792;52.760;6.726;2023-12-14T11:48:56;6.90;99.90
59007;DHT22;44792;52.760;6.726;2023-12-14T11:51:22;6.70;99.90
59007;DHT22;44792;52.760;6.726;2023-12-14T11:53:49;6.70;99.90
59007;DHT22;44792;52.760;6.726;2023-12-14T11:56:18;6.70;99.90
59007;DHT22;44792;52.760;6.726;2023-12-14T11:58:44;6.70;99.90
59007;DHT22;44792;52.760;6.726;2023-12-14T12:01:12;6.80;99.90
59007;DHT22;44792;52.760;6.726;2023-12-14T12:03:38;6.80;99.90
59007;DHT22;44792;52.760;6.726;2023-12-14T12:06:04;6.80;99.90
59007;DHT22;44792;52.760;6.726;2023-12-14T12:08:29;6.90;99.90
59007;DHT22;44792;52.760;6.726;2023-12-14T12:10:57;6.90;99.90
59007;DHT22;44792;52.760;6.726;2023-12-14T12:13:22;6.90;99.90
59007;DHT22;44792;52.760;6.726;2023-12-14T12:15:48;6.90;99.90
59007;DHT22;44792;52.760;6.726;2023-12-14T12:18:16;6.90;99.90
59007;DHT22;44792;52.760;6.726;2023-12-14T12:20:42;6.80;99.90
59007;DHT22;44792;52.760;6.726;2023-12-14T12:23:08;6.80;99.90
59007;DHT22;44792;52.760;6.726;2023-12-14T12:25:34;6.80;99.90
59007;DHT22;44792;52.760;6.726;2023-12-14T12:28:02;6.90;99.90
59007;DHT22;44792;52.760;6.726;2023-12-14T12:30:29;6.90;99.90
59007;DHT22;44792;52.760;6.726;2023-12-14T12:32:55;7.00;99.90
59007;DHT22;44792;52.760;6.726;2023-12-14T12:35:22;6.90;99.90
59007;DHT22;44792;52.760;6.726;2023-12-14T12:37:48;7.00;99.90
59007;DHT22;44792;52.760;6.726;2023-12-14T12:40:22;7.00;99.90
59007;DHT22;44792;52.760;6.726;2023-12-14T12:42:49;6.90;99.90
59007;DHT22;44792;52.760;6.726;2023-12-14T12:45:15;7.00;99.90
59007;DHT22;44792;52.760;6.726;2023-12-14T12:47:47;6.90;99.90
59007;DHT22;44792;52.760;6.726;2023-12-14T12:50:13;7.00;99.90
59007;DHT22;44792;52.760;6.726;2023-12-14T12:52:39;7.00;99.90
59007;DHT22;44792;52.760;6.726;2023-12-14T12:55:06;7.00;99.90
59007;DHT22;44792;52.760;6.726;2023-12-14T12:57:32;6.90;99.90
59007;DHT22;44792;52.760;6.726;2023-12-14T12:59:58;6.90;99.90
59007;DHT22;44792;52.760;6.726;2023-12-14T13:02:24;6.90;99.90
59007;DHT22;44792;52.760;6.726;2023-12-14T13:04:49;6.90;99.90
59007;DHT22;44792;52.760;6.726;2023-12-14T13:07:15;7.00;99.90
59007;DHT22;44792;52.760;6.726;2023-12-14T13:09:41;7.00;99.90
59007;DHT22;44792;52.760;6.726;2023-12-14T13:12:07;7.00;99.90
59007;DHT22;44792;52.760;6.726;2023-12-14T13:14:33;7.00;99.90
59007;DHT22;44792;52.760;6.726;2023-12-14T13:16:59;6.90;99.90
59007;DHT22;44792;52.760;6.726;2023-12-14T13:19:25;6.90;99.90
59007;DHT22;44792;52.760;6.726;2023-12-14T13:21:51;6.90;99.90
59007;DHT22;44792;52.760;6.726;2023-12-14T13:24:17;6.90;99.90
59007;DHT22;44792;52.760;6.726;2023-12-14T13:26:43;6.90;99.90
59007;DHT22;44792;52.760;6.726;2023-12-14T13:29:09;6.90;99.90
59007;DHT22;44792;52.760;6.726;2023-12-14T13:31:36;6.90;99.90
59007;DHT22;44792;52.760;6.726;2023-12-14T13:34:01;6.90;99.90
59007;DHT22;44792;52.760;6.726;2023-12-14T13:36:28;6.90;99.90
59007;DHT22;44792;52.760;6.726;2023-12-14T13:38:55;6.90;99.90
59007;DHT22;44792;52.760;6.726;2023-12-14T13:41:22;6.90;99.90
59007;DHT22;44792;52.760;6.726;2023-12-14T13:43:47;6.90;99.90
59007;DHT22;44792;52.760;6.726;2023-12-14T13:46:13;6.90;99.90
59007;DHT22;44792;52.760;6.726;2023-12-14T13:48:39;6.80;99.90
59007;DHT22;44792;52.760;6.726;2023-12-14T13:51:06;6.80;99.90
59007;DHT22;44792;52.760;6.726;2023-12-14T13:53:32;6.80;99.90
59007;DHT22;44792;52.760;6.726;2023-12-14T13:55:58;6.70;99.90
59007;DHT22;44792;52.760;6.726;2023-12-14T13:58:24;6.80;99.90
59007;DHT22;44792;52.760;6.726;2023-12-14T14:00:49;6.90;99.90
59007;DHT22;44792;52.760;6.726;2023-12-14T14:03:15;6.80;99.90
59007;DHT22;44792;52.760;6.726;2023-12-14T14:05:41;6.80;99.90
59007;DHT22;44792;52.760;6.726;2023-12-14T14:08:09;6.80;99.90
59007;DHT22;44792;52.760;6.726;2023-12-14T14:10:35;6.70;99.90
59007;DHT22;44792;52.760;6.726;2023-12-14T14:13:01;6.70;99.90
59007;DHT22;44792;52.760;6.726;2023-12-14T14:15:27;6.70;99.90
59007;DHT22;44792;52.760;6.726;2023-12-14T14:17:53;6.70;99.90
59007;DHT22;44792;52.760;6.726;2023-12-14T14:20:20;6.70;99.90
59007;DHT22;44792;52.760;6.726;2023-12-14T14:22:45;6.60;99.90
59007;DHT22;44792;52.760;6.726;2023-12-14T14:25:11;6.60;99.90
59007;DHT22;44792;52.760;6.726;2023-12-14T14:27:37;6.60;99.90
59007;DHT22;44792;52.760;6.726;2023-12-14T14:30:04;6.70;99.90
59007;DHT22;44792;52.760;6.726;2023-12-14T14:32:29;6.60;99.90
59007;DHT22;44792;52.760;6.726;2023-12-14T14:34:57;6.60;99.90
59007;DHT22;44792;52.760;6.726;2023-12-14T14:37:24;6.60;99.90
59007;DHT22;44792;52.760;6.726;2023-12-14T14:39:50;6.60;99.90
59007;DHT22;44792;52.760;6.726;2023-12-14T14:42:16;6.60;99.90
59007;DHT22;44792;52.760;6.726;2023-12-14T14:44:42;6.60;99.90
59007;DHT22;44792;52.760;6.726;2023-12-14T14:47:07;6.50;99.90
59007;DHT22;44792;52.760;6.726;2023-12-14T14:49:33;6.50;99.90
59007;DHT22;44792;52.760;6.726;2023-12-14T14:51:59;6.40;99.90
59007;DHT22;44792;52.760;6.726;2023-12-14T14:54:24;6.50;99.90
59007;DHT22;44792;52.760;6.726;2023-12-14T14:56:51;6.50;99.90
59007;DHT22;44792;52.760;6.726;2023-12-14T14:59:16;6.40;99.90
59007;DHT22;44792;52.760;6.726;2023-12-14T15:01:42;6.40;99.90
59007;DHT22;44792;52.760;6.726;2023-12-14T15:04:08;6.40;99.90
59007;DHT22;44792;52.760;6.726;2023-12-14T15:06:34;6.40;99.90
59007;DHT22;44792;52.760;6.726;2023-12-14T15:09:00;6.40;99.90
59007;DHT22;44792;52.760;6.726;2023-12-14T15:11:26;6.30;99.90
59007;DHT22;44792;52.760;6.726;2023-12-14T15:13:52;6.40;99.90
59007;DHT22;44792;52.760;6.726;2023-12-14T15:16:17;6.40;99.90
59007;DHT22;44792;52.760;6.726;2023-12-14T15:18:50;6.30;99.90
59007;DHT22;44792;52.760;6.726;2023-12-14T15:21:16;6.30;99.90
59007;DHT22;44792;52.760;6.726;2023-12-14T15:23:42;6.30;99.90
59007;DHT22;44792;52.760;6.726;2023-12-14T15:26:09;6.20;99.90
59007;DHT22;44792;52.760;6.726;2023-12-14T15:28:37;6.10;99.90
59007;DHT22;44792;52.760;6.726;2023-12-14T15:31:03;6.10;99.90
59007;DHT22;44792;52.760;6.726;2023-12-14T15:33:28;6.10;99.90
59007;DHT22;44792;52.760;6.726;2023-12-14T15:35:54;6.00;99.90
59007;DHT22;44792;52.760;6.726;2023-12-14T15:38:20;6.00;99.90
59007;DHT22;44792;52.760;6.726;2023-12-14T15:40:46;5.90;99.90
59007;DHT22;44792;52.760;6.726;2023-12-14T15:43:11;5.90;99.90